sensor_id;sensor_type;location;lat;lon;timestamp;pressure;altitude;pressure_sealevel;temperature;humidity
7180;BME280;3631;42.152;24.756;2022-12-17T00:00:06;99423.75;;;9.77;100.00
7180;BME280;3631;42.152;24.756;2022-12-17T00:02:55;99420.19;;;9.81;100.00
7180;BME280;3631;42.152;24.756;2022-12-17T00:05:45;99434.09;;;9.77;100.00
7180;BME280;3631;42.152;24.756;2022-12-17T00:08:30;99431.66;;;9.71;100.00
7180;BME280;3631;42.152;24.756;2022-12-17T00:11:15;99417.91;;;9.69;100.00
7180;BME280;3631;42.152;24.756;2022-12-17T00:13:59;99431.59;;;9.74;100.00
7180;BME280;3631;42.152;24.756;2022-12-17T00:16:44;99418.69;;;9.71;100.00
7180;BME280;3631;42.152;24.756;2022-12-17T00:19:28;99436.81;;;9.72;100.00
7180;BME280;3631;42.152;24.756;2022-12-17T00:22:13;99427.22;;;9.76;100.00
7180;BME280;3631;42.152;24.756;2022-12-17T00:24:57;99424.06;;;9.65;100.00
7180;BME280;3631;42.152;24.756;2022-12-17T00:27:44;99418.28;;;9.55;100.00
7180;BME280;3631;42.152;24.756;2022-12-17T00:30:28;99420.84;;;9.57;100.00
7180;BME280;3631;42.152;24.756;2022-12-17T00:33:12;99420.53;;;9.67;100.00
7180;BME280;3631;42.152;24.756;2022-12-17T00:35:57;99419.78;;;9.64;100.00
7180;BME280;3631;42.152;24.756;2022-12-17T00:38:41;99421.25;;;9.72;100.00
7180;BME280;3631;42.152;24.756;2022-12-17T00:41:25;99417.31;;;9.59;100.00
7180;BME280;3631;42.152;24.756;2022-12-17T00:44:11;99421.69;;;9.57;100.00
7180;BME280;3631;42.152;24.756;2022-12-17T00:46:55;99415.47;;;9.63;100.00
7180;BME280;3631;42.152;24.756;2022-12-17T00:49:40;99412.28;;;9.53;100.00
7180;BME280;3631;42.152;24.756;2022-12-17T00:52:24;99399.38;;;9.52;100.00
7180;BME280;3631;42.152;24.756;2022-12-17T00:55:10;99406.94;;;9.59;100.00
7180;BME280;3631;42.152;24.756;2022-12-17T00:57:55;99395.63;;;9.62;100.00
7180;BME280;3631;42.152;24.756;2022-12-17T01:00:41;99411.88;;;9.68;100.00
7180;BME280;3631;42.152;24.756;2022-12-17T01:03:26;99410.25;;;9.64;100.00
7180;BME280;3631;42.152;24.756;2022-12-17T01:06:11;99390.78;;;9.50;100.00
7180;BME280;3631;42.152;24.756;2022-12-17T01:08:55;99417.13;;;9.65;100.00
7180;BME280;3631;42.152;24.756;2022-12-17T01:11:39;99411.31;;;9.57;100.00
7180;BME280;3631;42.152;24.756;2022-12-17T01:14:24;99412.00;;;9.64;100.00
7180;BME280;3631;42.152;24.756;2022-12-17T01:17:10;99408.72;;;9.57;100.00
7180;BME280;3631;42.152;24.756;2022-12-17T01:19:55;99403.53;;;9.57;100.00
7180;BME280;3631;42.152;24.756;2022-12-17T01:22:39;99388.97;;;9.53;100.00
7180;BME280;3631;42.152;24.756;2022-12-17T01:25:23;99385.31;;;9.60;100.00
7180;BME280;3631;42.152;24.756;2022-12-17T01:28:08;99393.56;;;9.74;100.00
7180;BME280;3631;42.152;24.756;2022-12-17T01:30:53;99398.78;;;9.73;100.00
7180;BME280;3631;42.152;24.756;2022-12-17T01:33:40;99395.31;;;9.74;100.00
7180;BME280;3631;42.152;24.756;2022-12-17T01:36:24;99378.00;;;9.74;100.00
7180;BME280;3631;42.152;24.756;2022-12-17T01:39:08;99386.72;;;9.72;100.00
7180;BME280;3631;42.152;24.756;2022-12-17T01:41:53;99372.13;;;9.69;100.00
7180;BME280;3631;42.152;24.756;2022-12-17T01:44:49;99381.53;;;9.72;100.00
7180;BME280;3631;42.152;24.756;2022-12-17T01:47:38;99354.06;;;9.66;100.00
7180;BME280;3631;42.152;24.756;2022-12-17T01:50:26;99371.22;;;9.70;100.00
7180;BME280;3631;42.152;24.756;2022-12-17T01:53:11;99371.41;;;9.63;100.00
7180;BME280;3631;42.152;24.756;2022-12-17T01:55:55;99360.34;;;9.58;100.00
7180;BME280;3631;42.152;24.756;2022-12-17T01:58:41;99373.31;;;9.58;100.00
7180;BME280;3631;42.152;24.756;2022-12-17T02:01:25;99362.94;;;9.58;100.00
7180;BME280;3631;42.152;24.756;2022-12-17T02:04:10;99359.63;;;9.53;100.00
7180;BME280;3631;42.152;24.756;2022-12-17T02:07:11;99375.09;;;9.56;100.00
7180;BME280;3631;42.152;24.756;2022-12-17T02:10:05;99357.78;;;9.56;100.00
7180;BME280;3631;42.152;24.756;2022-12-17T02:12:53;99374.16;;;9.58;100.00
7180;BME280;3631;42.152;24.756;2022-12-17T02:15:43;99374.91;;;9.62;100.00
7180;BME280;3631;42.152;24.756;2022-12-17T02:18:33;99345.13;;;9.45;100.00
7180;BME280;3631;42.152;24.756;2022-12-17T02:21:20;99371.13;;;9.42;100.00
7180;BME280;3631;42.152;24.756;2022-12-17T02:24:12;99363.41;;;9.39;100.00
7180;BME280;3631;42.152;24.756;2022-12-17T02:27:04;99367.94;;;9.31;100.00
7180;BME280;3631;42.152;24.756;2022-12-17T02:29:54;99365.53;;;9.25;100.00
7180;BME280;3631;42.152;24.756;2022-12-17T02:32:41;99367.91;;;9.33;100.00
7180;BME280;3631;42.152;24.756;2022-12-17T02:35:29;99379.78;;;9.41;100.00
7180;BME280;3631;42.152;24.756;2022-12-17T02:38:18;99375.91;;;9.25;100.00
7180;BME280;3631;42.152;24.756;2022-12-17T02:41:04;99383.47;;;9.33;100.00
7180;BME280;3631;42.152;24.756;2022-12-17T02:43:51;99376.69;;;9.27;100.00
7180;BME280;3631;42.152;24.756;2022-12-17T02:46:37;99375.53;;;9.37;100.00
7180;BME280;3631;42.152;24.756;2022-12-17T02:49:22;99382.44;;;9.38;100.00
7180;BME280;3631;42.152;24.756;2022-12-17T02:52:07;99373.97;;;9.32;100.00
7180;BME280;3631;42.152;24.756;2022-12-17T02:54:50;99369.69;;;9.31;100.00
7180;BME280;3631;42.152;24.756;2022-12-17T02:57:35;99383.53;;;9.30;100.00
7180;BME280;3631;42.152;24.756;2022-12-17T03:00:23;99378.38;;;9.28;100.00
7180;BME280;3631;42.152;24.756;2022-12-17T03:03:07;99375.72;;;9.31;100.00
7180;BME280;3631;42.152;24.756;2022-12-17T03:05:51;99383.25;;;9.40;100.00
7180;BME280;3631;42.152;24.756;2022-12-17T03:08:36;99375.53;;;9.37;100.00
7180;BME280;3631;42.152;24.756;2022-12-17T03:11:20;99368.72;;;9.35;100.00
7180;BME280;3631;42.152;24.756;2022-12-17T03:14:01;99372.19;;;9.35;100.00
7180;BME280;3631;42.152;24.756;2022-12-17T03:16:47;99354.19;;;9.29;100.00
7180;BME280;3631;42.152;24.756;2022-12-17T03:19:31;99352.84;;;9.15;100.00
7180;BME280;3631;42.152;24.756;2022-12-17T03:22:15;99348.28;;;9.24;100.00
7180;BME280;3631;42.152;24.756;2022-12-17T03:25:11;99365.53;;;9.25;100.00
7180;BME280;3631;42.152;24.756;2022-12-17T03:27:55;99362.69;;;9.34;100.00
7180;BME280;3631;42.152;24.756;2022-12-17T03:30:39;99343.78;;;9.31;100.00
7180;BME280;3631;42.152;24.756;2022-12-17T03:33:25;99349.19;;;9.23;100.00
7180;BME280;3631;42.152;24.756;2022-12-17T03:36:09;99322.00;;;9.05;100.00
7180;BME280;3631;42.152;24.756;2022-12-17T03:38:54;99366.28;;;9.29;100.00
7180;BME280;3631;42.152;24.756;2022-12-17T03:41:38;99326.81;;;9.21;100.00
7180;BME280;3631;42.152;24.756;2022-12-17T03:44:23;99350.91;;;9.23;100.00
7180;BME280;3631;42.152;24.756;2022-12-17T03:47:07;99331.19;;;9.17;100.00
7180;BME280;3631;42.152;24.756;2022-12-17T03:49:53;99360.41;;;9.24;100.00
7180;BME280;3631;42.152;24.756;2022-12-17T03:52:37;99336.25;;;9.23;100.00
7180;BME280;3631;42.152;24.756;2022-12-17T03:55:21;99341.59;;;9.16;100.00
7180;BME280;3631;42.152;24.756;2022-12-17T03:58:06;99327.78;;;9.15;100.00
7180;BME280;3631;42.152;24.756;2022-12-17T04:00:50;99361.44;;;9.15;100.00
7180;BME280;3631;42.152;24.756;2022-12-17T04:03:35;99314.78;;;9.18;100.00
7180;BME280;3631;42.152;24.756;2022-12-17T04:06:20;99328.78;;;9.11;100.00
7180;BME280;3631;42.152;24.756;2022-12-17T04:09:05;99320.22;;;9.07;100.00
7180;BME280;3631;42.152;24.756;2022-12-17T04:11:49;99307.09;;;9.15;100.00
7180;BME280;3631;42.152;24.756;2022-12-17T04:14:34;99322.09;;;9.02;100.00
7180;BME280;3631;42.152;24.756;2022-12-17T04:17:18;99300.38;;;9.08;100.00
7180;BME280;3631;42.152;24.756;2022-12-17T04:20:03;99324.50;;;9.10;100.00
7180;BME280;3631;42.152;24.756;2022-12-17T04:22:49;99269.94;;;8.84;100.00
7180;BME280;3631;42.152;24.756;2022-12-17T04:25:33;99308.19;;;9.06;100.00
7180;BME280;3631;42.152;24.756;2022-12-17T04:28:17;99307.31;;;9.06;100.00
7180;BME280;3631;42.152;24.756;2022-12-17T04:31:02;99264.63;;;8.90;100.00
7180;BME280;3631;42.152;24.756;2022-12-17T04:33:46;99293.13;;;8.88;100.00
7180;BME280;3631;42.152;24.756;2022-12-17T04:36:31;99294.09;;;8.84;100.00
7180;BME280;3631;42.152;24.756;2022-12-17T04:39:16;99287.03;;;8.91;100.00
7180;BME280;3631;42.152;24.756;2022-12-17T04:42:00;99302.66;;;8.86;100.00
7180;BME280;3631;42.152;24.756;2022-12-17T04:44:45;99280.16;;;8.90;100.00
7180;BME280;3631;42.152;24.756;2022-12-17T04:47:29;99286.19;;;8.90;100.00
7180;BME280;3631;42.152;24.756;2022-12-17T04:50:14;99273.38;;;8.84;100.00
7180;BME280;3631;42.152;24.756;2022-12-17T04:53:13;99287.03;;;8.91;100.00
7180;BME280;3631;42.152;24.756;2022-12-17T04:55:58;99281.69;;;8.97;100.00
7180;BME280;3631;42.152;24.756;2022-12-17T04:58:42;99274.81;;;8.96;100.00
7180;BME280;3631;42.152;24.756;2022-12-17T05:01:26;99299.22;;;8.86;100.00
7180;BME280;3631;42.152;24.756;2022-12-17T05:04:11;99290.59;;;8.87;100.00
7180;BME280;3631;42.152;24.756;2022-12-17T05:06:55;99303.63;;;8.82;100.00
7180;BME280;3631;42.152;24.756;2022-12-17T05:09:39;99304.19;;;8.93;100.00
7180;BME280;3631;42.152;24.756;2022-12-17T05:12:25;99304.34;;;8.89;100.00
7180;BME280;3631;42.152;24.756;2022-12-17T05:15:09;99312.81;;;8.94;100.00
7180;BME280;3631;42.152;24.756;2022-12-17T05:18:06;99314.25;;;9.05;100.00
7180;BME280;3631;42.152;24.756;2022-12-17T05:20:50;99318.66;;;9.02;100.00
7180;BME280;3631;42.152;24.756;2022-12-17T05:23:35;99320.22;;;9.07;100.00
7180;BME280;3631;42.152;24.756;2022-12-17T05:26:23;99334.28;;;8.99;100.00
7180;BME280;3631;42.152;24.756;2022-12-17T05:29:23;99311.75;;;9.02;100.00
7180;BME280;3631;42.152;24.756;2022-12-17T05:32:07;99336.59;;;9.09;100.00
7180;BME280;3631;42.152;24.756;2022-12-17T05:34:52;99305.41;;;9.14;100.00
7180;BME280;3631;42.152;24.756;2022-12-17T05:37:36;99336.47;;;9.14;100.00
7180;BME280;3631;42.152;24.756;2022-12-17T05:40:32;99295.13;;;9.11;100.00
7180;BME280;3631;42.152;24.756;2022-12-17T05:43:16;99327.78;;;9.15;100.00
7180;BME280;3631;42.152;24.756;2022-12-17T05:46:02;99325.44;;;9.06;100.00
7180;BME280;3631;42.152;24.756;2022-12-17T05:48:47;99345.13;;;9.13;100.00
7180;BME280;3631;42.152;24.756;2022-12-17T05:51:31;99346.84;;;9.14;100.00
7180;BME280;3631;42.152;24.756;2022-12-17T05:54:16;99352.25;;;9.03;100.00
7180;BME280;3631;42.152;24.756;2022-12-17T05:57:00;99325.34;;;9.10;100.00
7180;BME280;3631;42.152;24.756;2022-12-17T05:59:45;99357.19;;;9.14;100.00
7180;BME280;3631;42.152;24.756;2022-12-17T06:02:30;99336.56;;;9.11;100.00
7180;BME280;3631;42.152;24.756;2022-12-17T06:05:15;99371.06;;;9.12;100.00
7180;BME280;3631;42.152;24.756;2022-12-17T06:08:04;99321.34;;;9.31;100.00
7180;BME280;3631;42.152;24.756;2022-12-17T06:10:48;99375.03;;;9.57;100.00
7180;BME280;3631;42.152;24.756;2022-12-17T06:13:32;99339.19;;;9.73;100.00
7180;BME280;3631;42.152;24.756;2022-12-17T06:16:16;99379.13;;;9.66;100.00
7180;BME280;3631;42.152;24.756;2022-12-17T06:19:02;99385.22;;;9.94;100.00
7180;BME280;3631;42.152;24.756;2022-12-17T06:21:46;99420.44;;;10.03;100.00
7180;BME280;3631;42.152;24.756;2022-12-17T06:24:31;99387.88;;;9.93;100.00
7180;BME280;3631;42.152;24.756;2022-12-17T06:27:15;99437.09;;;9.62;100.00
7180;BME280;3631;42.152;24.756;2022-12-17T06:30:00;99380.19;;;9.59;100.00
7180;BME280;3631;42.152;24.756;2022-12-17T06:32:44;99435.81;;;9.45;100.00
7180;BME280;3631;42.152;24.756;2022-12-17T06:35:30;99393.47;;;9.46;100.00
7180;BME280;3631;42.152;24.756;2022-12-17T06:38:14;99431.66;;;9.38;100.00
7180;BME280;3631;42.152;24.756;2022-12-17T06:41:00;99392.03;;;9.35;100.00
7180;BME280;3631;42.152;24.756;2022-12-17T06:43:44;99422.06;;;9.42;100.00
7180;BME280;3631;42.152;24.756;2022-12-17T06:46:28;99397.25;;;9.33;100.00
7180;BME280;3631;42.152;24.756;2022-12-17T06:49:13;99411.78;;;9.39;100.00
7180;BME280;3631;42.152;24.756;2022-12-17T06:51:58;99405.88;;;9.34;100.00
7180;BME280;3631;42.152;24.756;2022-12-17T06:54:43;99408.31;;;9.40;100.00
7180;BME280;3631;42.152;24.756;2022-12-17T06:57:27;99398.06;;;9.35;100.00
7180;BME280;3631;42.152;24.756;2022-12-17T07:00:12;99406.59;;;9.39;100.00
7180;BME280;3631;42.152;24.756;2022-12-17T07:02:56;99395.41;;;9.37;100.00
7180;BME280;3631;42.152;24.756;2022-12-17T07:05:41;99365.19;;;9.37;100.00
7180;BME280;3631;42.152;24.756;2022-12-17T07:08:27;99384.66;;;9.52;100.00
7180;BME280;3631;42.152;24.756;2022-12-17T07:11:11;99377.44;;;9.63;100.00
7180;BME280;3631;42.152;24.756;2022-12-17T07:13:56;99373.16;;;9.62;100.00
7180;BME280;3631;42.152;24.756;2022-12-17T07:16:40;99396.28;;;9.70;100.00
7180;BME280;3631;42.152;24.756;2022-12-17T07:19:24;99372.06;;;9.71;100.00
7180;BME280;3631;42.152;24.756;2022-12-17T07:22:09;99378.72;;;9.48;100.00
7180;BME280;3631;42.152;24.756;2022-12-17T07:24:54;99342.66;;;9.41;100.00
7180;BME280;3631;42.152;24.756;2022-12-17T07:27:38;99390.75;;;9.51;100.00
7180;BME280;3631;42.152;24.756;2022-12-17T07:30:23;99377.63;;;9.57;100.00
7180;BME280;3631;42.152;24.756;2022-12-17T07:33:09;99404.22;;;9.64;100.00
7180;BME280;3631;42.152;24.756;2022-12-17T07:35:54;99393.06;;;9.60;100.00
7180;BME280;3631;42.152;24.756;2022-12-17T07:38:53;99400.06;;;9.58;100.00
7180;BME280;3631;42.152;24.756;2022-12-17T07:41:38;99386.38;;;9.53;100.00
7180;BME280;3631;42.152;24.756;2022-12-17T07:44:23;99392.34;;;9.57;100.00
7180;BME280;3631;42.152;24.756;2022-12-17T07:47:07;99419.94;;;9.58;100.00
7180;BME280;3631;42.152;24.756;2022-12-17T07:49:51;99440.53;;;9.62;100.00
7180;BME280;3631;42.152;24.756;2022-12-17T07:52:36;99435.16;;;9.70;100.00
7180;BME280;3631;42.152;24.756;2022-12-17T07:55:20;99439.38;;;9.74;100.00
7180;BME280;3631;42.152;24.756;2022-12-17T07:58:10;99434.09;;;9.77;100.00
7180;BME280;3631;42.152;24.756;2022-12-17T08:01:09;99457.22;;;9.84;100.00
7180;BME280;3631;42.152;24.756;2022-12-17T08:03:53;99463.41;;;9.80;100.00
7180;BME280;3631;42.152;24.756;2022-12-17T08:06:37;99467.81;;;9.77;100.00
7180;BME280;3631;42.152;24.756;2022-12-17T08:09:21;99460.59;;;9.88;100.00
7180;BME280;3631;42.152;24.756;2022-12-17T08:12:09;99469.38;;;9.82;100.00
7180;BME280;3631;42.152;24.756;2022-12-17T08:14:55;99476.03;;;9.93;100.00
7180;BME280;3631;42.152;24.756;2022-12-17T08:17:39;99475.97;;;9.94;100.00
7180;BME280;3631;42.152;24.756;2022-12-17T08:20:23;99463.28;;;9.83;100.00
7180;BME280;3631;42.152;24.756;2022-12-17T08:23:07;99483.00;;;9.91;100.00
7180;BME280;3631;42.152;24.756;2022-12-17T08:25:52;99487.13;;;9.98;100.00
7180;BME280;3631;42.152;24.756;2022-12-17T08:28:36;99501.19;;;9.89;100.00
7180;BME280;3631;42.152;24.756;2022-12-17T08:31:23;99488.63;;;10.05;100.00
7180;BME280;3631;42.152;24.756;2022-12-17T08:34:08;99489.41;;;10.08;100.00
7180;BME280;3631;42.152;24.756;2022-12-17T08:36:58;99496.03;;;10.20;100.00
7180;BME280;3631;42.152;24.756;2022-12-17T08:39:43;99478.59;;;10.27;100.00
7180;BME280;3631;42.152;24.756;2022-12-17T08:42:27;99487.63;;;10.10;100.00
7180;BME280;3631;42.152;24.756;2022-12-17T08:45:11;99479.13;;;10.05;100.00
7180;BME280;3631;42.152;24.756;2022-12-17T08:48:03;99480.72;;;10.11;100.00
7180;BME280;3631;42.152;24.756;2022-12-17T08:50:47;99469.31;;;10.16;100.00
7180;BME280;3631;42.152;24.756;2022-12-17T08:53:32;99460.88;;;10.08;100.00
7180;BME280;3631;42.152;24.756;2022-12-17T08:56:16;99444.81;;;9.96;100.00
7180;BME280;3631;42.152;24.756;2022-12-17T08:59:01;99439.31;;;9.75;100.00
7180;BME280;3631;42.152;24.756;2022-12-17T09:01:45;99421.44;;;9.66;100.00
7180;BME280;3631;42.152;24.756;2022-12-17T09:04:42;99454.88;;;9.75;100.00
7180;BME280;3631;42.152;24.756;2022-12-17T09:07:27;99453.75;;;9.86;100.00
7180;BME280;3631;42.152;24.756;2022-12-17T09:10:11;99458.97;;;9.84;100.00
7180;BME280;3631;42.152;24.756;2022-12-17T09:13:00;99459.75;;;9.88;100.00
7180;BME280;3631;42.152;24.756;2022-12-17T09:15:50;99458.00;;;9.88;100.00
7180;BME280;3631;42.152;24.756;2022-12-17T09:18:35;99467.91;;;10.05;100.00
7180;BME280;3631;42.152;24.756;2022-12-17T09:21:21;99470.16;;;10.17;100.00
7180;BME280;3631;42.152;24.756;2022-12-17T09:24:05;99460.19;;;10.03;100.00
7180;BME280;3631;42.152;24.756;2022-12-17T09:26:50;99468.41;;;10.19;100.00
7180;BME280;3631;42.152;24.756;2022-12-17T09:29:37;99477.16;;;10.15;100.00
7180;BME280;3631;42.152;24.756;2022-12-17T09:32:25;99485.03;;;10.10;100.00
7180;BME280;3631;42.152;24.756;2022-12-17T09:35:10;99509.00;;;10.20;100.00
7180;BME280;3631;42.152;24.756;2022-12-17T09:38:10;99473.03;;;10.06;100.00
7180;BME280;3631;42.152;24.756;2022-12-17T09:41:15;99495.94;;;10.25;100.00
7180;BME280;3631;42.152;24.756;2022-12-17T09:44:05;99485.28;;;10.34;100.00
7180;BME280;3631;42.152;24.756;2022-12-17T09:46:56;99465.16;;;10.42;100.00
7180;BME280;3631;42.152;24.756;2022-12-17T09:49:42;99462.75;;;10.65;100.00
7180;BME280;3631;42.152;24.756;2022-12-17T09:52:38;99467.75;;;10.71;100.00
7180;BME280;3631;42.152;24.756;2022-12-17T09:55:29;99469.22;;;10.80;100.00
7180;BME280;3631;42.152;24.756;2022-12-17T09:58:19;99444.53;;;10.67;100.00
7180;BME280;3631;42.152;24.756;2022-12-17T10:01:04;99443.38;;;10.75;100.00
7180;BME280;3631;42.152;24.756;2022-12-17T10:03:48;99425.97;;;10.79;100.00
7180;BME280;3631;42.152;24.756;2022-12-17T10:06:34;99426.84;;;10.79;100.00
7180;BME280;3631;42.152;24.756;2022-12-17T10:09:19;99422.56;;;10.77;100.00
7180;BME280;3631;42.152;24.756;2022-12-17T10:12:13;99406.69;;;10.60;100.00
7180;BME280;3631;42.152;24.756;2022-12-17T10:14:57;99415.38;;;10.59;100.00
7180;BME280;3631;42.152;24.756;2022-12-17T10:17:42;99400.66;;;10.59;100.00
7180;BME280;3631;42.152;24.756;2022-12-17T10:20:30;99402.91;;;10.70;100.00
7180;BME280;3631;42.152;24.756;2022-12-17T10:23:23;99404.38;;;10.78;100.00
7180;BME280;3631;42.152;24.756;2022-12-17T10:26:08;99421.63;;;10.79;100.00
7180;BME280;3631;42.152;24.756;2022-12-17T10:29:02;99413.81;;;10.81;100.00
7180;BME280;3631;42.152;24.756;2022-12-17T10:31:47;99408.16;;;10.68;100.00
7180;BME280;3631;42.152;24.756;2022-12-17T10:34:35;99406.75;;;10.84;100.00
7180;BME280;3631;42.152;24.756;2022-12-17T10:37:20;99399.69;;;10.89;100.00
7180;BME280;3631;42.152;24.756;2022-12-17T10:40:16;99403.72;;;10.98;100.00
7180;BME280;3631;42.152;24.756;2022-12-17T10:43:02;99405.50;;;10.96;100.00
7180;BME280;3631;42.152;24.756;2022-12-17T10:46:03;99411.47;;;11.00;100.00
7180;BME280;3631;42.152;24.756;2022-12-17T10:48:48;99409.94;;;10.94;100.00
7180;BME280;3631;42.152;24.756;2022-12-17T10:51:33;99411.84;;;10.87;100.00
7180;BME280;3631;42.152;24.756;2022-12-17T10:54:21;99396.19;;;10.90;100.00
7180;BME280;3631;42.152;24.756;2022-12-17T10:57:07;99384.34;;;11.08;100.00
7180;BME280;3631;42.152;24.756;2022-12-17T11:00:23;99390.25;;;11.13;100.00
7180;BME280;3631;42.152;24.756;2022-12-17T11:03:26;99378.56;;;11.00;100.00
7180;BME280;3631;42.152;24.756;2022-12-17T11:06:11;99376.19;;;11.19;100.00
7180;BME280;3631;42.152;24.756;2022-12-17T11:08:59;99360.09;;;11.34;100.00
7180;BME280;3631;42.152;24.756;2022-12-17T11:11:45;99373.47;;;11.48;100.00
7180;BME280;3631;42.152;24.756;2022-12-17T11:14:31;99369.53;;;11.37;100.00
7180;BME280;3631;42.152;24.756;2022-12-17T11:17:20;99399.06;;;11.34;100.00
7180;BME280;3631;42.152;24.756;2022-12-17T11:20:17;99402.78;;;11.27;100.00
7180;BME280;3631;42.152;24.756;2022-12-17T11:23:07;99396.53;;;11.33;100.00
7180;BME280;3631;42.152;24.756;2022-12-17T11:26:00;99366.19;;;11.33;100.00
7180;BME280;3631;42.152;24.756;2022-12-17T11:28:45;99398.06;;;11.38;100.00
7180;BME280;3631;42.152;24.756;2022-12-17T11:31:44;99397.22;;;11.38;100.00
7180;BME280;3631;42.152;24.756;2022-12-17T11:34:37;99432.09;;;11.31;100.00
7180;BME280;3631;42.152;24.756;2022-12-17T11:37:35;99412.50;;;11.20;100.00
7180;BME280;3631;42.152;24.756;2022-12-17T11:40:27;99466.41;;;11.40;100.00
7180;BME280;3631;42.152;24.756;2022-12-17T11:43:18;99452.44;;;11.44;100.00
7180;BME280;3631;42.152;24.756;2022-12-17T11:46:13;99441.72;;;11.53;100.00
7180;BME280;3631;42.152;24.756;2022-12-17T11:49:08;99473.13;;;11.47;100.00
7180;BME280;3631;42.152;24.756;2022-12-17T11:52:00;99476.94;;;11.37;100.00
7180;BME280;3631;42.152;24.756;2022-12-17T11:54:53;99496.59;;;11.18;100.00
7180;BME280;3631;42.152;24.756;2022-12-17T11:57:45;99506.34;;;11.11;100.00
7180;BME280;3631;42.152;24.756;2022-12-17T12:00:35;99517.66;;;11.09;100.00
7180;BME280;3631;42.152;24.756;2022-12-17T12:03:29;99523.28;;;10.95;100.00
7180;BME280;3631;42.152;24.756;2022-12-17T12:06:25;99532.09;;;10.89;100.00
7180;BME280;3631;42.152;24.756;2022-12-17T12:09:17;99527.56;;;10.96;100.00
7180;BME280;3631;42.152;24.756;2022-12-17T12:12:11;99526.84;;;10.93;100.00
7180;BME280;3631;42.152;24.756;2022-12-17T12:15:05;99529.28;;;10.97;100.00
7180;BME280;3631;42.152;24.756;2022-12-17T12:18:00;99533.34;;;11.06;100.00
7180;BME280;3631;42.152;24.756;2022-12-17T12:21:04;99507.13;;;11.13;100.00
7180;BME280;3631;42.152;24.756;2022-12-17T12:23:59;99505.69;;;11.31;100.00
7180;BME280;3631;42.152;24.756;2022-12-17T12:26:55;99502.19;;;11.32;100.00
7180;BME280;3631;42.152;24.756;2022-12-17T12:29:49;99500.28;;;11.39;100.00
7180;BME280;3631;42.152;24.756;2022-12-17T12:32:44;99485.00;;;11.54;100.00
7180;BME280;3631;42.152;24.756;2022-12-17T12:35:34;99478.56;;;11.66;100.00
7180;BME280;3631;42.152;24.756;2022-12-17T12:38:23;99440.44;;;11.65;100.00
7180;BME280;3631;42.152;24.756;2022-12-17T12:41:15;99467.97;;;11.72;100.00
7180;BME280;3631;42.152;24.756;2022-12-17T12:44:05;99472.91;;;11.80;100.00
7180;BME280;3631;42.152;24.756;2022-12-17T12:47:01;99465.16;;;11.78;100.00
7180;BME280;3631;42.152;24.756;2022-12-17T12:49:54;99443.47;;;11.79;100.00
7180;BME280;3631;42.152;24.756;2022-12-17T12:52:40;99440.88;;;11.79;100.00
7180;BME280;3631;42.152;24.756;2022-12-17T12:55:35;99439.03;;;11.83;100.00
7180;BME280;3631;42.152;24.756;2022-12-17T12:58:24;99437.22;;;11.85;100.00
7180;BME280;3631;42.152;24.756;2022-12-17T13:01:09;99419.31;;;11.76;100.00
7180;BME280;3631;42.152;24.756;2022-12-17T13:03:56;99456.19;;;11.87;100.00
7180;BME280;3631;42.152;24.756;2022-12-17T13:06:44;99452.59;;;11.91;100.00
7180;BME280;3631;42.152;24.756;2022-12-17T13:09:29;99441.00;;;11.99;100.00
7180;BME280;3631;42.152;24.756;2022-12-17T13:12:13;99439.22;;;12.02;100.00
7180;BME280;3631;42.152;24.756;2022-12-17T13:14:46;99432.34;;;11.99;100.00
7180;BME280;3631;42.152;24.756;2022-12-17T13:17:27;99429.81;;;11.97;100.00
7180;BME280;3631;42.152;24.756;2022-12-17T13:23:23;99428.34;;;11.90;100.00
7180;BME280;3631;42.152;24.756;2022-12-17T13:26:09;99438.78;;;11.89;100.00
7180;BME280;3631;42.152;24.756;2022-12-17T13:28:39;99435.13;;;11.94;100.00
7180;BME280;3631;42.152;24.756;2022-12-17T13:31:15;99448.84;;;11.98;100.00
7180;BME280;3631;42.152;24.756;2022-12-17T13:33:47;99440.81;;;12.06;100.00
7180;BME280;3631;42.152;24.756;2022-12-17T13:36:22;99449.38;;;12.08;100.00
7180;BME280;3631;42.152;24.756;2022-12-17T13:38:58;99457.38;;;12.03;100.00
7180;BME280;3631;42.152;24.756;2022-12-17T13:41:30;99457.88;;;12.13;100.00
7180;BME280;3631;42.152;24.756;2022-12-17T13:44:00;99464.53;;;12.20;100.00
7180;BME280;3631;42.152;24.756;2022-12-17T13:46:34;99466.94;;;12.26;100.00
7180;BME280;3631;42.152;24.756;2022-12-17T13:49:02;99468.41;;;12.33;100.00
7180;BME280;3631;42.152;24.756;2022-12-17T13:51:33;99466.56;;;12.36;100.00
7180;BME280;3631;42.152;24.756;2022-12-17T13:54:01;99461.25;;;12.40;100.00
7180;BME280;3631;42.152;24.756;2022-12-17T13:56:31;99456.94;;;12.39;100.00
7180;BME280;3631;42.152;24.756;2022-12-17T13:58:59;99463.66;;;12.44;100.00
7180;BME280;3631;42.152;24.756;2022-12-17T14:01:27;99465.31;;;12.47;100.00
7180;BME280;3631;42.152;24.756;2022-12-17T14:03:56;99476.50;;;12.49;100.00
7180;BME280;3631;42.152;24.756;2022-12-17T14:06:28;99480.06;;;12.46;100.00
7180;BME280;3631;42.152;24.756;2022-12-17T14:08:59;99480.38;;;12.39;100.00
7180;BME280;3631;42.152;24.756;2022-12-17T14:11:26;99484.66;;;12.40;100.00
7180;BME280;3631;42.152;24.756;2022-12-17T14:14:19;99479.56;;;12.36;100.00
7180;BME280;3631;42.152;24.756;2022-12-17T14:16:49;99482.31;;;12.32;100.00
7180;BME280;3631;42.152;24.756;2022-12-17T14:19:16;99487.72;;;12.27;100.00
7180;BME280;3631;42.152;24.756;2022-12-17T14:21:43;99489.47;;;12.27;100.00
7180;BME280;3631;42.152;24.756;2022-12-17T14:24:12;99504.19;;;12.28;100.00
7180;BME280;3631;42.152;24.756;2022-12-17T14:26:48;99512.03;;;12.26;100.00
7180;BME280;3631;42.152;24.756;2022-12-17T14:29:21;99501.81;;;12.20;100.00
7180;BME280;3631;42.152;24.756;2022-12-17T14:31:51;99485.38;;;12.20;100.00
7180;BME280;3631;42.152;24.756;2022-12-17T14:34:18;99483.03;;;12.12;100.00
7180;BME280;3631;42.152;24.756;2022-12-17T14:36:45;99481.06;;;11.95;100.00
7180;BME280;3631;42.152;24.756;2022-12-17T14:39:19;99493.03;;;11.99;100.00
7180;BME280;3631;42.152;24.756;2022-12-17T14:41:49;99501.50;;;12.06;100.00
7180;BME280;3631;42.152;24.756;2022-12-17T14:44:34;99508.50;;;12.04;100.00
7180;BME280;3631;42.152;24.756;2022-12-17T14:47:13;99505.22;;;11.73;100.00